Terminal Aerodrome Forecast
Issued by NWS

Home | Current Version | Previous Version | Text Only | Print | Product List | Glossary On
Versions: 1 2 3 4 5 6 7 8 9 10 11 12 13 14 15 16 17 18 19 20 21
000
FTUS42 KTAE 051810 AAA
TAFDHN
TAF AMD
KDHN 051810Z 0518/0618 21010KT P6SM -RA BKN007 BKN120
     FM052100 28002KT P6SM SCT120
     FM061200 26005KT P6SM SCT040
      AMD NOT SKED AFT 060200=

USA.gov is the U.S. government's official web portal to all federal, state and local government web resources and services.